Time;durP1;ratioP1;P1;durP2;ratioP2;P2;SDS_P1;SDS_P2;PMS_P1;PMS_P2;Temp;Humidity;BMP_temperature;BMP_pressure;BME280_temperature;BME280_humidity;BME280_pressure;Samples;Min_cycle;Max_cycle;Signal;HPM_P1;HPM_P2
2023/06/27 00:01:21;;;;;;;;;;;19.50;63.60;;;;;;5013569;28;19905;-80
2023/06/27 00:03:51;;;;;;;;;;;19.50;63.70;;;;;;5014480;28;20263;-78
2023/06/27 00:06:19;;;;;;;;;;;19.40;63.60;;;;;;5014561;28;20371;-79
2023/06/27 00:08:46;;;;;;;;;;;19.40;63.50;;;;;;5014494;28;19909;-80
2023/06/27 00:11:11;;;;;;;;;;;19.40;63.60;;;;;;5013180;28;20287;-81
2023/06/27 00:13:40;;;;;;;;;;;19.40;63.60;;;;;;5015564;28;19925;-79
2023/06/27 00:16:13;;;;;;;;;;;19.40;63.50;;;;;;5014104;28;20000;-79
2023/06/27 00:18:39;;;;;;;;;;;19.40;63.60;;;;;;5014679;28;19905;-78
2023/06/27 00:21:05;;;;;;;;;;;19.40;63.80;;;;;;5014710;28;19905;-79
2023/06/27 00:23:33;;;;;;;;;;;19.40;63.90;;;;;;5015038;28;20407;-79
2023/06/27 00:25:59;;;;;;;;;;;19.30;64.80;;;;;;5014325;28;19914;-79
2023/06/27 00:28:25;;;;;;;;;;;19.30;64.30;;;;;;5013230;28;19940;-80
2023/06/27 00:30:51;;;;;;;;;;;19.30;64.30;;;;;;5015844;28;19905;-78
2023/06/27 00:33:17;;;;;;;;;;;19.30;64.60;;;;;;5016268;28;19909;-81
2023/06/27 00:35:42;;;;;;;;;;;19.20;65.00;;;;;;5015075;28;19913;-81
2023/06/27 00:38:08;;;;;;;;;;;19.20;65.20;;;;;;5016218;28;19905;-79
2023/06/27 00:40:33;;;;;;;;;;;19.20;65.50;;;;;;5013530;28;19909;-79
2023/06/27 00:42:59;;;;;;;;;;;19.20;65.50;;;;;;5014337;28;19931;-79
2023/06/27 00:45:25;;;;;;;;;;;19.10;65.50;;;;;;5014150;28;19905;-80
2023/06/27 00:47:51;;;;;;;;;;;19.10;65.50;;;;;;5012693;28;19920;-79
2023/06/27 00:50:17;;;;;;;;;;;19.10;65.80;;;;;;5014090;28;19917;-80
2023/06/27 00:52:43;;;;;;;;;;;19.00;65.80;;;;;;5013864;28;19909;-79
2023/06/27 00:55:09;;;;;;;;;;;19.00;66.00;;;;;;5013932;28;19913;-78
2023/06/27 00:57:35;;;;;;;;;;;19.00;66.30;;;;;;5013733;28;19911;-80
2023/06/27 01:00:00;;;;;;;;;;;19.00;66.50;;;;;;5012422;28;19984;-79
2023/06/27 01:02:26;;;;;;;;;;;18.90;66.90;;;;;;4999897;28;19912;-79
2023/06/27 01:04:52;;;;;;;;;;;18.90;66.80;;;;;;5013455;28;19929;-80
2023/06/27 01:07:22;;;;;;;;;;;18.90;66.80;;;;;;5011787;28;20598;-79
2023/06/27 01:09:51;;;;;;;;;;;18.90;67.00;;;;;;5014989;28;20363;-79
2023/06/27 01:12:17;;;;;;;;;;;18.90;67.40;;;;;;5015858;28;19910;-80
2023/06/27 01:14:44;;;;;;;;;;;18.80;67.30;;;;;;5014089;28;20355;-78
2023/06/27 01:17:10;;;;;;;;;;;18.80;67.40;;;;;;5018867;28;19912;-80
2023/06/27 01:19:36;;;;;;;;;;;18.80;67.60;;;;;;5025471;28;19905;-79
2023/06/27 01:22:05;;;;;;;;;;;18.80;67.70;;;;;;5029325;28;19906;-79
2023/06/27 01:24:32;;;;;;;;;;;18.80;67.80;;;;;;5014586;28;20298;-78
2023/06/27 01:26:58;;;;;;;;;;;18.80;67.90;;;;;;5013400;28;19917;-80
2023/06/27 01:29:25;;;;;;;;;;;18.80;68.60;;;;;;5012213;28;19917;-79
2023/06/27 01:31:58;;;;;;;;;;;18.80;68.00;;;;;;5013475;28;19972;-80
2023/06/27 01:34:31;;;;;;;;;;;18.70;68.20;;;;;;5011956;28;19944;-79
2023/06/27 01:37:23;;;;;;;;;;;18.70;68.60;;;;;;5013336;28;19916;-80
2023/06/27 01:39:52;;;;;;;;;;;18.80;68.80;;;;;;5010104;28;20001;-80
2023/06/27 01:42:18;;;;;;;;;;;18.70;68.90;;;;;;5012852;28;20000;-79
2023/06/27 01:44:46;;;;;;;;;;;18.70;68.90;;;;;;5013115;28;19948;-80
2023/06/27 01:47:12;;;;;;;;;;;18.70;69.00;;;;;;5009389;28;19914;-81
2023/06/27 01:49:38;;;;;;;;;;;18.70;69.00;;;;;;5002955;28;19917;-80
2023/06/27 01:52:04;;;;;;;;;;;18.70;68.90;;;;;;5014877;28;19909;-81
2023/06/27 01:54:29;;;;;;;;;;;18.70;68.70;;;;;;5014466;28;19906;-80
2023/06/27 01:56:55;;;;;;;;;;;18.70;68.70;;;;;;5011254;28;19912;-80
2023/06/27 01:59:21;;;;;;;;;;;18.70;68.80;;;;;;5012590;28;19932;-79
2023/06/27 02:01:46;;;;;;;;;;;18.70;68.80;;;;;;5012764;28;20354;-79
2023/06/27 02:04:12;;;;;;;;;;;18.70;69.00;;;;;;5011280;28;19905;-80
2023/06/27 02:06:37;;;;;;;;;;;18.70;69.00;;;;;;5011466;28;19913;-80
2023/06/27 02:09:04;;;;;;;;;;;18.80;69.20;;;;;;5013062;28;19909;-79
2023/06/27 02:11:29;;;;;;;;;;;18.80;69.30;;;;;;5012899;28;19912;-79
2023/06/27 02:13:55;;;;;;;;;;;18.80;69.10;;;;;;5012578;28;19905;-79
2023/06/27 02:16:21;;;;;;;;;;;18.90;69.20;;;;;;5011383;28;19944;-79
2023/06/27 02:18:46;;;;;;;;;;;18.90;69.10;;;;;;5012353;28;19972;-80
2023/06/27 02:21:12;;;;;;;;;;;18.90;69.10;;;;;;5017663;28;19909;-78
2023/06/27 02:23:38;;;;;;;;;;;18.90;69.00;;;;;;5016424;28;19951;-79
2023/06/27 02:26:03;;;;;;;;;;;19.00;68.90;;;;;;5021536;28;19949;-78
2023/06/27 02:28:29;;;;;;;;;;;19.00;68.90;;;;;;5018563;28;20260;-79
2023/06/27 02:30:55;;;;;;;;;;;19.00;68.80;;;;;;5016288;28;19919;-78
2023/06/27 02:33:20;;;;;;;;;;;19.00;68.70;;;;;;5016838;28;19959;-79
2023/06/27 02:35:46;;;;;;;;;;;19.00;68.80;;;;;;5016281;28;19955;-79
2023/06/27 02:38:12;;;;;;;;;;;19.00;68.80;;;;;;5016431;28;19910;-78
2023/06/27 02:40:37;;;;;;;;;;;19.00;68.70;;;;;;5016945;28;20414;-80
2023/06/27 02:43:03;;;;;;;;;;;19.10;68.70;;;;;;5016011;28;19909;-79
2023/06/27 02:45:29;;;;;;;;;;;19.10;68.50;;;;;;5016123;28;19996;-78
2023/06/27 02:47:54;;;;;;;;;;;19.20;68.30;;;;;;5015926;28;19913;-79
2023/06/27 02:50:20;;;;;;;;;;;19.40;68.20;;;;;;5017445;28;19905;-79
2023/06/27 02:52:46;;;;;;;;;;;19.40;68.00;;;;;;5013019;28;19933;-77
2023/06/27 02:55:11;;;;;;;;;;;19.50;67.80;;;;;;5004916;28;19991;-78
2023/06/27 02:57:37;;;;;;;;;;;19.50;67.50;;;;;;5015572;28;19917;-78
2023/06/27 03:00:04;;;;;;;;;;;19.60;67.60;;;;;;5015826;28;19914;-79
2023/06/27 03:02:29;;;;;;;;;;;19.80;67.50;;;;;;5016367;28;19912;-79
2023/06/27 03:04:55;;;;;;;;;;;19.90;67.10;;;;;;5016005;28;19948;-78
2023/06/27 03:07:20;;;;;;;;;;;19.90;66.70;;;;;;5020959;28;19936;-77
2023/06/27 03:09:46;;;;;;;;;;;19.90;66.60;;;;;;5016154;28;20000;-79
2023/06/27 03:12:12;;;;;;;;;;;19.90;66.60;;;;;;5014579;28;19910;-79
2023/06/27 03:14:37;;;;;;;;;;;19.90;66.60;;;;;;5015950;28;20373;-78
2023/06/27 03:17:03;;;;;;;;;;;19.90;66.60;;;;;;5016084;28;19909;-79
2023/06/27 03:19:29;;;;;;;;;;;19.80;66.60;;;;;;5016707;28;19913;-79
2023/06/27 03:21:54;;;;;;;;;;;19.80;66.80;;;;;;5017707;28;19905;-77
2023/06/27 03:24:20;;;;;;;;;;;19.80;66.90;;;;;;5032799;28;19909;-78
2023/06/27 03:26:45;;;;;;;;;;;19.80;67.10;;;;;;5033373;28;19913;-79
2023/06/27 03:29:11;;;;;;;;;;;19.70;67.00;;;;;;5018276;28;19909;-79
2023/06/27 03:31:37;;;;;;;;;;;19.70;67.20;;;;;;5015567;28;19916;-79
2023/06/27 03:34:03;;;;;;;;;;;19.70;67.40;;;;;;5011255;28;20017;-79
2023/06/27 03:36:33;;;;;;;;;;;19.70;67.40;;;;;;5007639;28;19932;-80
2023/06/27 03:38:59;;;;;;;;;;;19.70;67.40;;;;;;5014894;28;19909;-80
2023/06/27 03:41:24;;;;;;;;;;;19.70;67.50;;;;;;5015112;28;19910;-79
2023/06/27 03:43:50;;;;;;;;;;;19.60;67.60;;;;;;5013725;28;19910;-81
2023/06/27 03:46:16;;;;;;;;;;;19.60;68.00;;;;;;5014919;28;19921;-79
2023/06/27 03:48:41;;;;;;;;;;;19.60;68.20;;;;;;5014680;28;20637;-80
2023/06/27 03:51:07;;;;;;;;;;;19.80;68.10;;;;;;5014578;28;19909;-79
2023/06/27 03:53:33;;;;;;;;;;;19.90;67.70;;;;;;5016136;28;19909;-81
2023/06/27 03:56:00;;;;;;;;;;;20.00;67.50;;;;;;5014954;28;19949;-79
2023/06/27 03:58:26;;;;;;;;;;;20.20;67.50;;;;;;5013355;28;20358;-79
2023/06/27 04:00:53;;;;;;;;;;;20.30;66.90;;;;;;5016418;28;20297;-78
2023/06/27 04:03:19;;;;;;;;;;;20.30;66.30;;;;;;5016415;28;19910;-78
2023/06/27 04:05:44;;;;;;;;;;;20.30;66.30;;;;;;5015871;28;19917;-79
2023/06/27 04:08:10;;;;;;;;;;;20.40;66.80;;;;;;5015460;28;19917;-80
2023/06/27 04:10:35;;;;;;;;;;;20.40;66.60;;;;;;5014270;28;19912;-79
2023/06/27 04:13:01;;;;;;;;;;;20.30;66.40;;;;;;5014338;28;19988;-79
2023/06/27 04:15:27;;;;;;;;;;;20.30;66.60;;;;;;4996370;28;19995;-79
2023/06/27 04:17:52;;;;;;;;;;;20.30;66.40;;;;;;5014401;28;19913;-81
2023/06/27 04:20:18;;;;;;;;;;;20.40;66.40;;;;;;5014407;28;19912;-81
2023/06/27 04:22:44;;;;;;;;;;;20.30;66.40;;;;;;4996941;28;19913;-81
2023/06/27 04:25:11;;;;;;;;;;;20.20;65.90;;;;;;5014156;28;19905;-81
2023/06/27 04:27:38;;;;;;;;;;;20.20;66.10;;;;;;5014095;28;20279;-79
2023/06/27 04:30:04;;;;;;;;;;;20.40;66.10;;;;;;5013968;28;19905;-80
2023/06/27 04:32:33;;;;;;;;;;;20.80;65.60;;;;;;5014637;28;19996;-79
2023/06/27 04:34:59;;;;;;;;;;;21.00;65.10;;;;;;4997381;28;19906;-78
2023/06/27 04:37:25;;;;;;;;;;;21.20;64.70;;;;;;5008702;28;19912;-79
2023/06/27 04:39:53;;;;;;;;;;;21.40;64.60;;;;;;5011356;28;19993;-80
2023/06/27 04:42:19;;;;;;;;;;;21.60;63.60;;;;;;5003709;28;20392;-80
2023/06/27 04:44:45;;;;;;;;;;;21.80;63.30;;;;;;5011473;28;19952;-79
2023/06/27 04:47:10;;;;;;;;;;;21.90;62.70;;;;;;5006549;28;20016;-79
2023/06/27 04:49:36;;;;;;;;;;;21.70;61.80;;;;;;5002608;28;19961;-79
2023/06/27 04:52:02;;;;;;;;;;;21.60;62.30;;;;;;5014353;28;19917;-79
2023/06/27 04:54:28;;;;;;;;;;;21.60;62.70;;;;;;5018363;28;19909;-79
2023/06/27 04:56:53;;;;;;;;;;;21.60;62.40;;;;;;5014146;28;20024;-79
2023/06/27 04:59:19;;;;;;;;;;;21.60;62.60;;;;;;5013497;28;19905;-80
2023/06/27 05:01:45;;;;;;;;;;;21.60;62.90;;;;;;5013730;28;19909;-80
2023/06/27 05:04:11;;;;;;;;;;;21.50;63.00;;;;;;5013272;28;19948;-79
2023/06/27 05:06:36;;;;;;;;;;;21.70;63.00;;;;;;4992193;28;19914;-79
2023/06/27 05:09:03;;;;;;;;;;;21.90;63.00;;;;;;5003466;28;19956;-80
2023/06/27 05:11:30;;;;;;;;;;;22.30;62.70;;;;;;5014305;28;19905;-79
2023/06/27 05:13:56;;;;;;;;;;;22.60;62.10;;;;;;5024337;28;19960;-80
2023/06/27 05:16:22;;;;;;;;;;;22.90;61.70;;;;;;4999708;28;19906;-79
2023/06/27 05:18:48;;;;;;;;;;;23.60;61.50;;;;;;5013149;28;20394;-80
2023/06/27 05:21:13;;;;;;;;;;;24.30;60.00;;;;;;5014051;28;19944;-80
2023/06/27 05:23:39;;;;;;;;;;;25.00;58.10;;;;;;5013886;28;19992;-80
2023/06/27 05:26:05;;;;;;;;;;;25.40;56.90;;;;;;5016461;28;19916;-80
2023/06/27 05:28:30;;;;;;;;;;;25.40;56.00;;;;;;5023913;28;19977;-79
2023/06/27 05:30:57;;;;;;;;;;;25.10;54.40;;;;;;5016128;28;19906;-80
2023/06/27 05:33:23;;;;;;;;;;;24.70;54.50;;;;;;5014902;28;20347;-80
2023/06/27 05:35:48;;;;;;;;;;;24.90;55.20;;;;;;5013921;28;19944;-80
2023/06/27 05:38:15;;;;;;;;;;;25.90;54.90;;;;;;5010647;28;19996;-78
2023/06/27 05:40:40;;;;;;;;;;;27.00;52.70;;;;;;5016671;28;19912;-78
2023/06/27 05:43:06;;;;;;;;;;;28.20;51.60;;;;;;5008358;28;20335;-81
2023/06/27 05:45:32;;;;;;;;;;;;;;;;;;4996193;28;20633;-81
2023/06/27 05:47:58;;;;;;;;;;;29.50;50.20;;;;;;5012204;28;19964;-78
2023/06/27 05:50:23;;;;;;;;;;;31.30;44.50;;;;;;4995004;28;19909;-81
2023/06/27 05:52:49;;;;;;;;;;;30.70;45.60;;;;;;5012650;28;19916;-80
2023/06/27 05:55:15;;;;;;;;;;;29.70;45.10;;;;;;5010117;28;20310;-79
2023/06/27 05:57:40;;;;;;;;;;;28.90;45.60;;;;;;5014252;28;19913;-81
2023/06/27 06:00:10;;;;;;;;;;;28.30;46.70;;;;;;5017084;28;19905;-81
2023/06/27 06:02:37;;;;;;;;;;;27.90;47.00;;;;;;5013535;28;19921;-80
2023/06/27 06:05:03;;;;;;;;;;;27.80;47.50;;;;;;5016465;28;20377;-81
2023/06/27 06:07:29;;;;;;;;;;;28.20;48.00;;;;;;5016811;28;19913;-80
2023/06/27 06:09:54;;;;;;;;;;;29.30;47.20;;;;;;5016780;28;20363;-81
2023/06/27 06:12:20;;;;;;;;;;;29.80;46.20;;;;;;5011984;28;19914;-81
2023/06/27 06:14:46;;;;;;;;;;;29.70;45.70;;;;;;5016423;28;19905;-81
2023/06/27 06:17:12;;;;;;;;;;;29.70;45.70;;;;;;5016690;28;20000;-81
2023/06/27 06:19:38;;;;;;;;;;;;;;;;;;5016367;28;20369;-81
2023/06/27 06:22:04;;;;;;;;;;;31.10;45.80;;;;;;5016101;28;19912;-79
2023/06/27 06:24:30;;;;;;;;;;;34.70;40.90;;;;;;5016941;28;19905;-82
2023/06/27 06:26:56;;;;;;;;;;;36.00;40.00;;;;;;4998414;28;19913;-82
2023/06/27 06:29:21;;;;;;;;;;;37.10;37.90;;;;;;5002942;28;19906;-81
2023/06/27 06:31:47;;;;;;;;;;;;;;;;;;5002836;28;19996;-80
2023/06/27 06:34:13;;;;;;;;;;;37.90;35.50;;;;;;5003680;28;19917;-80
2023/06/27 06:36:38;;;;;;;;;;;38.50;35.70;;;;;;4998356;28;19912;-79
2023/06/27 06:39:04;;;;;;;;;;;39.00;35.70;;;;;;4998498;28;20024;-80
2023/06/27 06:41:30;;;;;;;;;;;;;;;;;;5018824;28;19905;-80
2023/06/27 06:43:56;;;;;;;;;;;;;;;;;;5016980;28;19920;-82
2023/06/27 06:46:22;;;;;;;;;;;;;;;;;;5015472;28;20362;-79
2023/06/27 06:48:48;;;;;;;;;;;;;;;;;;5016160;28;20337;-81
2023/06/27 06:51:14;;;;;;;;;;;;;;;;;;5016799;28;19909;-80
2023/06/27 06:53:40;;;;;;;;;;;;;;;;;;5001810;28;19905;-81
2023/06/27 06:56:06;;;;;;;;;;;;;;;;;;5017018;28;19910;-80
2023/06/27 06:58:31;;;;;;;;;;;39.60;34.70;;;;;;4998779;28;20371;-82
2023/06/27 07:00:57;;;;;;;;;;;35.30;34.30;;;;;;5017189;28;19909;-80
2023/06/27 07:03:23;;;;;;;;;;;34.10;35.30;;;;;;5016384;28;19909;-81
2023/06/27 07:05:48;;;;;;;;;;;33.00;35.90;;;;;;5015991;28;20468;-80
2023/06/27 07:08:14;;;;;;;;;;;;;;;;;;5018152;28;19909;-80
2023/06/27 07:10:40;;;;;;;;;;;;;;;;;;4999192;28;20236;-81
2023/06/27 07:13:06;;;;;;;;;;;;;;;;;;5002428;28;19906;-81
2023/06/27 07:15:32;;;;;;;;;;;;;;;;;;4996272;28;19916;-80
2023/06/27 07:17:59;;;;;;;;;;;31.90;37.20;;;;;;5002776;28;19910;-81
2023/06/27 07:20:25;;;;;;;;;;;28.10;41.80;;;;;;5009811;28;19949;-81
2023/06/27 07:22:51;;;;;;;;;;;;;;;;;;5006815;28;19905;-80
2023/06/27 07:25:16;;;;;;;;;;;;;;;;;;5015776;28;19905;-81
2023/06/27 07:27:42;;;;;;;;;;;;;;;;;;4997861;28;19921;-81
2023/06/27 07:30:08;;;;;;;;;;;27.50;41.70;;;;;;5017961;28;19905;-81
2023/06/27 07:32:34;;;;;;;;;;;26.90;44.20;;;;;;5031932;28;20345;-80
2023/06/27 07:35:00;;;;;;;;;;;26.90;44.10;;;;;;5033955;28;19893;-80
2023/06/27 07:37:25;;;;;;;;;;;26.90;44.00;;;;;;5002457;28;20255;-80
2023/06/27 07:39:51;;;;;;;;;;;27.30;44.10;;;;;;5015711;28;19905;-80
2023/06/27 07:42:17;;;;;;;;;;;28.40;43.80;;;;;;5015071;28;19906;-82
2023/06/27 07:44:43;;;;;;;;;;;30.20;42.70;;;;;;5013035;28;19913;-81
2023/06/27 07:47:09;;;;;;;;;;;31.60;41.60;;;;;;5013397;28;19929;-81
2023/06/27 07:49:34;;;;;;;;;;;32.90;40.90;;;;;;5014960;28;19905;-81
2023/06/27 07:52:00;;;;;;;;;;;34.80;38.80;;;;;;5014674;28;19955;-81
2023/06/27 07:54:27;;;;;;;;;;;36.10;36.40;;;;;;5009011;28;19910;-81
2023/06/27 07:56:54;;;;;;;;;;;36.70;34.90;;;;;;5006287;28;19989;-81
2023/06/27 07:59:20;;;;;;;;;;;36.90;34.10;;;;;;4996860;28;19912;-81
2023/06/27 08:01:46;;;;;;;;;;;36.20;33.80;;;;;;5014018;28;19909;-81
2023/06/27 08:04:12;;;;;;;;;;;34.70;34.00;;;;;;5013983;28;19913;-81
2023/06/27 08:06:38;;;;;;;;;;;33.70;35.30;;;;;;5014455;28;19917;-82
2023/06/27 08:09:03;;;;;;;;;;;33.40;35.80;;;;;;5014663;28;19953;-81
2023/06/27 08:11:29;;;;;;;;;;;32.70;35.60;;;;;;5014476;28;20008;-83
2023/06/27 08:13:54;;;;;;;;;;;32.00;36.30;;;;;;5014617;28;20363;-81
2023/06/27 08:16:20;;;;;;;;;;;32.20;35.90;;;;;;5014379;28;20305;-81
2023/06/27 08:18:46;;;;;;;;;;;33.20;35.80;;;;;;4995904;28;19909;-81
2023/06/27 08:21:12;;;;;;;;;;;34.20;35.60;;;;;;5014205;28;20263;-82
2023/06/27 08:23:38;;;;;;;;;;;34.90;34.60;;;;;;4996923;28;19929;-82
2023/06/27 08:26:03;;;;;;;;;;;34.40;33.40;;;;;;5014843;28;19932;-81
2023/06/27 08:28:29;;;;;;;;;;;33.50;33.30;;;;;;5007389;28;19910;-81
2023/06/27 08:30:56;;;;;;;;;;;33.10;34.30;;;;;;5016406;28;19910;-80
2023/06/27 08:33:22;;;;;;;;;;;33.00;33.60;;;;;;4996812;28;19913;-80
2023/06/27 08:35:48;;;;;;;;;;;32.50;33.40;;;;;;5016899;28;19960;-80
2023/06/27 08:38:14;;;;;;;;;;;31.70;32.90;;;;;;5015286;28;19906;-80
2023/06/27 08:40:40;;;;;;;;;;;31.50;33.80;;;;;;5013919;28;20409;-83
2023/06/27 08:43:07;;;;;;;;;;;31.80;33.60;;;;;;5013941;28;20381;-82
2023/06/27 08:45:35;;;;;;;;;;;31.10;33.40;;;;;;5014079;28;19963;-80
2023/06/27 08:48:02;;;;;;;;;;;30.00;34.80;;;;;;5015406;28;19980;-82
2023/06/27 08:50:29;;;;;;;;;;;29.30;35.60;;;;;;4995969;28;19913;-80
2023/06/27 08:52:55;;;;;;;;;;;29.00;35.80;;;;;;5014124;28;19905;-81
2023/06/27 08:55:36;;;;;;;;;;;29.10;36.10;;;;;;5017202;28;19905;-81
2023/06/27 08:58:07;;;;;;;;;;;29.40;36.10;;;;;;5001527;28;19981;-82
2023/06/27 09:00:33;;;;;;;;;;;29.50;36.60;;;;;;5013858;28;19913;-81
2023/06/27 09:02:59;;;;;;;;;;;29.40;37.10;;;;;;5013330;28;19931;-80
2023/06/27 09:05:25;;;;;;;;;;;29.30;37.20;;;;;;5013821;28;20004;-83
2023/06/27 09:07:51;;;;;;;;;;;29.20;37.50;;;;;;5014468;28;20429;-83
2023/06/27 09:10:17;;;;;;;;;;;28.70;37.50;;;;;;4995764;28;19905;-82
2023/06/27 09:12:44;;;;;;;;;;;28.80;38.00;;;;;;5013379;28;19921;-81
2023/06/27 09:15:10;;;;;;;;;;;29.60;37.80;;;;;;5013217;28;20255;-80
2023/06/27 09:17:37;;;;;;;;;;;30.60;37.10;;;;;;5013440;28;19956;-81
2023/06/27 09:20:05;;;;;;;;;;;30.70;36.10;;;;;;5012988;28;19914;-81
2023/06/27 09:22:31;;;;;;;;;;;30.20;35.80;;;;;;5013028;28;20339;-81
2023/06/27 09:25:09;;;;;;;;;;;29.30;36.20;;;;;;5013742;28;20008;-81
2023/06/27 09:27:35;;;;;;;;;;;28.60;36.60;;;;;;4995669;28;19913;-80
2023/06/27 09:30:02;;;;;;;;;;;;;;;;;;5013552;28;20247;-81
2023/06/27 09:32:28;;;;;;;;;;;;;;;;;;5013828;28;19979;-81
2023/06/27 09:34:54;;;;;;;;;;;;;;;;;;5015055;28;20355;-82
2023/06/27 09:37:20;;;;;;;;;;;;;;;;;;5005134;28;19936;-81
2023/06/27 09:39:46;;;;;;;;;;;;;;;;;;5018437;28;20313;-80
2023/06/27 09:42:12;;;;;;;;;;;;;;;;;;5015597;28;19976;-81
2023/06/27 09:44:38;;;;;;;;;;;;;;;;;;5013072;28;19909;-82
2023/06/27 09:47:09;;;;;;;;;;;27.70;37.50;;;;;;5009281;28;20287;-81
2023/06/27 09:49:34;;;;;;;;;;;33.10;34.10;;;;;;4988359;28;19982;-80
2023/06/27 09:52:03;;;;;;;;;;;33.70;32.70;;;;;;5006732;28;19913;-80
2023/06/27 09:54:29;;;;;;;;;;;33.10;32.80;;;;;;4996608;28;19971;-81
2023/06/27 09:56:56;;;;;;;;;;;32.30;33.30;;;;;;5003671;28;19906;-81
2023/06/27 09:59:23;;;;;;;;;;;30.80;34.00;;;;;;5011465;28;19905;-82
2023/06/27 10:01:50;;;;;;;;;;;29.50;35.10;;;;;;5005063;28;19945;-80
2023/06/27 10:04:16;;;;;;;;;;;28.80;36.10;;;;;;5012414;28;20330;-81
2023/06/27 10:06:42;;;;;;;;;;;;;;;;;;4999295;28;19925;-81
2023/06/27 10:09:08;;;;;;;;;;;;;;;;;;5013267;28;20379;-80
2023/06/27 10:11:35;;;;;;;;;;;;;;;;;;5014456;28;20373;-81
2023/06/27 10:14:03;;;;;;;;;;;;;;;;;;5016077;28;19968;-80
2023/06/27 10:16:29;;;;;;;;;;;28.30;37.10;;;;;;5019259;28;19914;-80
2023/06/27 10:18:55;;;;;;;;;;;27.20;39.00;;;;;;5020356;28;19936;-81
2023/06/27 10:21:22;;;;;;;;;;;27.00;39.10;;;;;;5019351;28;20306;-80
2023/06/27 10:23:48;;;;;;;;;;;;;;;;;;5019647;28;19956;-80
2023/06/27 10:26:17;;;;;;;;;;;26.90;39.30;;;;;;5019975;28;20012;-81
2023/06/27 10:28:48;;;;;;;;;;;26.60;39.90;;;;;;5015207;28;19983;-80
2023/06/27 10:31:34;;;;;;;;;;;26.60;40.40;;;;;;5013440;28;19964;-82
2023/06/27 10:34:00;;;;;;;;;;;;;;;;;;5013395;28;20359;-81
2023/06/27 10:36:26;;;;;;;;;;;;;;;;;;5012703;28;19912;-82
2023/06/27 10:38:53;;;;;;;;;;;;;;;;;;4996176;28;19956;-81
2023/06/27 10:41:19;;;;;;;;;;;;;;;;;;5020903;28;19906;-80
2023/06/27 10:43:45;;;;;;;;;;;;;;;;;;5023523;28;20001;-80
2023/06/27 10:46:11;;;;;;;;;;;;;;;;;;5019799;28;19913;-81
2023/06/27 10:48:37;;;;;;;;;;;;;;;;;;5019870;28;19906;-82
2023/06/27 10:51:03;;;;;;;;;;;;;;;;;;5017669;28;20003;-80
2023/06/27 10:53:29;;;;;;;;;;;;;;;;;;5017400;28;19912;-81
2023/06/27 10:55:55;;;;;;;;;;;26.50;40.40;;;;;;5015891;28;19910;-82
2023/06/27 10:58:26;;;;;;;;;;;25.70;42.60;;;;;;5016254;28;19905;-81
2023/06/27 11:00:52;;;;;;;;;;;25.60;41.90;;;;;;5016038;28;19909;-80
2023/06/27 11:03:19;;;;;;;;;;;25.50;42.10;;;;;;5015495;28;20366;-81
2023/06/27 11:05:45;;;;;;;;;;;25.70;42.10;;;;;;5016391;28;19961;-83
2023/06/27 11:08:12;;;;;;;;;;;25.90;41.80;;;;;;5015927;28;19921;-82
2023/06/27 11:10:47;;;;;;;;;;;26.10;41.50;;;;;;5016585;28;19963;-81
2023/06/27 11:13:14;;;;;;;;;;;26.10;41.00;;;;;;4993597;28;19934;-82
2023/06/27 11:15:40;;;;;;;;;;;25.90;41.20;;;;;;4998404;28;19905;-82
2023/06/27 11:18:06;;;;;;;;;;;25.70;41.30;;;;;;5015928;28;19992;-81
2023/06/27 11:20:32;;;;;;;;;;;25.70;41.60;;;;;;5017570;28;19956;-80
2023/06/27 11:23:02;;;;;;;;;;;25.60;41.20;;;;;;5017546;28;19909;-82
2023/06/27 11:25:34;;;;;;;;;;;25.60;41.40;;;;;;5012778;28;19918;-82
2023/06/27 11:28:00;;;;;;;;;;;25.60;41.30;;;;;;4997783;28;19917;-82
2023/06/27 11:30:26;;;;;;;;;;;25.80;41.30;;;;;;5015446;28;19913;-83
2023/06/27 11:32:55;;;;;;;;;;;26.10;41.10;;;;;;4998418;28;20429;-81
2023/06/27 11:35:21;;;;;;;;;;;26.50;40.70;;;;;;5002052;28;19905;-81
2023/06/27 11:37:47;;;;;;;;;;;26.70;40.40;;;;;;5015598;28;19906;-82
2023/06/27 11:40:16;;;;;;;;;;;27.00;40.50;;;;;;5017966;28;20374;-80
2023/06/27 11:42:42;;;;;;;;;;;27.10;39.70;;;;;;5018612;28;19979;-82
2023/06/27 11:45:11;;;;;;;;;;;26.90;39.30;;;;;;5016653;28;20431;-80
2023/06/27 11:47:37;;;;;;;;;;;26.60;39.10;;;;;;4978880;28;20363;-82
2023/06/27 11:50:05;;;;;;;;;;;26.50;39.60;;;;;;5006498;28;20024;-82
2023/06/27 11:52:31;;;;;;;;;;;26.40;39.40;;;;;;5014566;28;19905;-81
2023/06/27 11:54:59;;;;;;;;;;;26.20;39.50;;;;;;5016001;28;19913;-82
2023/06/27 11:57:39;;;;;;;;;;;26.10;39.70;;;;;;5017686;28;19906;-82
2023/06/27 12:00:07;;;;;;;;;;;25.90;39.70;;;;;;4997387;28;19953;-79
2023/06/27 12:02:33;;;;;;;;;;;26.00;40.20;;;;;;5017003;28;19971;-80
2023/06/27 12:05:00;;;;;;;;;;;26.10;40.00;;;;;;5002471;28;19922;-80
2023/06/27 12:07:26;;;;;;;;;;;26.10;40.00;;;;;;4990826;28;19925;-82
2023/06/27 12:10:04;;;;;;;;;;;26.10;39.90;;;;;;5021192;28;19968;-82
2023/06/27 12:12:35;;;;;;;;;;;26.10;40.10;;;;;;5004222;28;19948;-81
2023/06/27 12:15:10;;;;;;;;;;;26.30;40.20;;;;;;5015885;28;19912;-81
2023/06/27 12:17:36;;;;;;;;;;;26.50;40.30;;;;;;5014208;28;19910;-82
2023/06/27 12:20:02;;;;;;;;;;;26.80;40.10;;;;;;5000154;28;20438;-79
2023/06/27 12:22:28;;;;;;;;;;;26.70;39.40;;;;;;5014569;28;19916;-80
2023/06/27 12:24:54;;;;;;;;;;;26.60;39.10;;;;;;5014893;28;19905;-83
2023/06/27 12:27:20;;;;;;;;;;;26.20;39.50;;;;;;5014352;28;19913;-82
2023/06/27 12:29:45;;;;;;;;;;;25.90;40.00;;;;;;5014682;28;20339;-80
2023/06/27 12:32:11;;;;;;;;;;;25.70;40.20;;;;;;5014240;28;19910;-82
2023/06/27 12:34:36;;;;;;;;;;;25.60;40.40;;;;;;5013640;28;19968;-80
2023/06/27 12:37:02;;;;;;;;;;;25.70;40.70;;;;;;5012585;28;19913;-81
2023/06/27 12:39:28;;;;;;;;;;;25.70;40.60;;;;;;5003142;28;19948;-81
2023/06/27 12:41:54;;;;;;;;;;;;;;;;;;5000324;28;19906;-80
2023/06/27 12:44:20;;;;;;;;;;;25.60;40.70;;;;;;5014095;28;19959;-80
2023/06/27 12:46:46;;;;;;;;;;;25.30;41.00;;;;;;5014561;28;19917;-80
2023/06/27 12:49:12;;;;;;;;;;;25.20;41.30;;;;;;5017222;28;19909;-81
2023/06/27 12:51:37;;;;;;;;;;;25.20;41.40;;;;;;5015990;28;19909;-81
2023/06/27 12:54:03;;;;;;;;;;;25.30;41.60;;;;;;5013651;28;20393;-81
2023/06/27 12:56:29;;;;;;;;;;;25.50;41.60;;;;;;5014156;28;19913;-80
2023/06/27 12:58:55;;;;;;;;;;;25.70;41.50;;;;;;4996087;28;20260;-81
2023/06/27 13:01:23;;;;;;;;;;;25.80;41.50;;;;;;5014113;28;19906;-81
2023/06/27 13:03:49;;;;;;;;;;;25.90;41.60;;;;;;5013002;28;19912;-81
2023/06/27 13:06:15;;;;;;;;;;;25.90;41.70;;;;;;4995072;28;19917;-80
2023/06/27 13:08:40;;;;;;;;;;;25.90;41.80;;;;;;5014131;28;20283;-81
2023/06/27 13:11:06;;;;;;;;;;;25.80;41.90;;;;;;4996560;28;19905;-81
2023/06/27 13:13:32;;;;;;;;;;;25.80;42.10;;;;;;5013500;28;20572;-82
2023/06/27 13:15:58;;;;;;;;;;;25.70;42.20;;;;;;5014287;28;19909;-81
2023/06/27 13:18:24;;;;;;;;;;;25.70;42.40;;;;;;5013220;28;20611;-81
2023/06/27 13:20:51;;;;;;;;;;;25.70;42.50;;;;;;5010398;28;20004;-79
2023/06/27 13:23:17;;;;;;;;;;;25.60;42.50;;;;;;5012584;28;20346;-81
2023/06/27 13:25:44;;;;;;;;;;;25.50;42.90;;;;;;5013343;28;19959;-81
2023/06/27 13:28:09;;;;;;;;;;;25.40;43.00;;;;;;5013479;28;19913;-83
2023/06/27 13:30:35;;;;;;;;;;;25.40;43.00;;;;;;5013733;28;19905;-81
2023/06/27 13:33:01;;;;;;;;;;;25.50;43.00;;;;;;5015026;28;20004;-82
2023/06/27 13:35:27;;;;;;;;;;;25.60;43.00;;;;;;5013871;28;19906;-82
2023/06/27 13:37:54;;;;;;;;;;;25.60;42.80;;;;;;5004206;28;19913;-81
2023/06/27 13:40:20;;;;;;;;;;;25.60;42.80;;;;;;5016004;28;20007;-81
2023/06/27 13:42:46;;;;;;;;;;;25.70;42.80;;;;;;5019110;28;20334;-82
2023/06/27 13:45:11;;;;;;;;;;;25.80;42.80;;;;;;5016399;28;19960;-80
2023/06/27 13:47:37;;;;;;;;;;;25.90;42.80;;;;;;5015294;28;19918;-82
2023/06/27 13:50:03;;;;;;;;;;;26.00;42.70;;;;;;5015247;28;19914;-82
2023/06/27 13:52:29;;;;;;;;;;;26.00;42.60;;;;;;4998542;28;20407;-81
2023/06/27 13:54:55;;;;;;;;;;;26.00;42.50;;;;;;4987524;28;19977;-81
2023/06/27 13:57:21;;;;;;;;;;;26.10;42.50;;;;;;5009407;28;19956;-81
2023/06/27 13:59:46;;;;;;;;;;;25.80;41.60;;;;;;5013568;28;19906;-82
2023/06/27 14:02:12;;;;;;;;;;;25.50;42.00;;;;;;5013088;28;19912;-80
2023/06/27 14:04:39;;;;;;;;;;;25.20;42.10;;;;;;5012792;28;19936;-81
2023/06/27 14:07:04;;;;;;;;;;;25.10;42.50;;;;;;5013740;28;19920;-82
2023/06/27 14:09:31;;;;;;;;;;;;;;;;;;5014236;28;19948;-80
2023/06/27 14:11:57;;;;;;;;;;;;;;;;;;5013213;28;19996;-81
2023/06/27 14:14:24;;;;;;;;;;;;;;;;;;5004095;28;19948;-83
2023/06/27 14:16:50;;;;;;;;;;;;;;;;;;5016899;28;19906;-81
2023/06/27 14:19:16;;;;;;;;;;;;;;;;;;5017634;28;19944;-81
2023/06/27 14:21:42;;;;;;;;;;;;;;;;;;5017567;28;19916;-82
2023/06/27 14:24:09;;;;;;;;;;;;;;;;;;4999584;28;20024;-82
2023/06/27 14:26:35;;;;;;;;;;;;;;;;;;5000239;28;20324;-81
2023/06/27 14:29:02;;;;;;;;;;;;;;;;;;5016619;28;19955;-82
2023/06/27 14:31:28;;;;;;;;;;;;;;;;;;5022387;28;20053;-80